Aviation Digital Data Service (ADDS)

Output produced by METARs form (1832 UTC 23 February 2017)
found at http://www.aviationweather.gov/adds/metars/
 
KATL 231728Z 2318/2424 10007KT P6SM SCT025 
     FM231900 11007KT P6SM SCT050 
     FM240100 12006KT P6SM SKC 
     FM241000 14004KT 5SM BR BKN010 
     FM241500 16008KT P6SM SCT040